Time;durP1;ratioP1;P1;durP2;ratioP2;P2;SDS_P1;SDS_P2;PMS_P1;PMS_P2;Temp;Humidity;BMP_temperature;BMP_pressure;BME280_temperature;BME280_humidity;BME280_pressure;Samples;Min_cycle;Max_cycle;Signal;HPM_P1;HPM_P2
2024/04/18 00:02:13;;;;;;;4.32;3.92;;;7.90;99.90;;;;;;5491162;25;20631;-74
2024/04/18 00:04:42;;;;;;;5.78;4.70;;;7.90;99.90;;;;;;5490264;25;20237;-74
2024/04/18 00:07:11;;;;;;;2.60;2.00;;;7.90;99.90;;;;;;5491104;25;20755;-74
2024/04/18 00:09:39;;;;;;;3.25;2.95;;;7.90;99.90;;;;;;5490198;25;20288;-74
2024/04/18 00:12:06;;;;;;;2.95;2.65;;;7.90;99.90;;;;;;5490603;25;20300;-74
2024/04/18 00:14:34;;;;;;;8.50;7.70;;;7.90;99.90;;;;;;5490356;25;20248;-74
2024/04/18 00:17:00;;;;;;;4.18;3.42;;;7.80;99.90;;;;;;5490606;25;20244;-74
2024/04/18 00:19:29;;;;;;;9.30;6.13;;;7.80;99.90;;;;;;5489972;25;20295;-74
2024/04/18 00:21:55;;;;;;;2.90;2.70;;;7.70;99.90;;;;;;5490769;25;20549;-74
2024/04/18 00:24:26;;;;;;;4.32;4.03;;;7.70;99.90;;;;;;5489997;25;20252;-74
2024/04/18 00:26:52;;;;;;;29.90;13.70;;;7.70;99.90;;;;;;5490448;25;20304;-74
2024/04/18 00:29:21;;;;;;;5.30;3.97;;;7.60;99.90;;;;;;5489928;25;20341;-74
2024/04/18 00:31:46;;;;;;;8.15;7.20;;;7.60;99.90;;;;;;5463738;26;20609;-74
2024/04/18 00:34:15;;;;;;;77.83;48.30;;;7.60;99.90;;;;;;5453045;26;20692;-74
2024/04/18 00:36:44;;;;;;;3.50;2.97;;;7.60;99.90;;;;;;5452527;26;20562;-74
2024/04/18 00:39:10;;;;;;;11.05;6.55;;;7.50;99.90;;;;;;5484802;25;20287;-74
2024/04/18 00:41:41;;;;;;;3.97;3.13;;;7.50;99.90;;;;;;5490007;25;20248;-74
2024/04/18 00:44:07;;;;;;;4.47;2.97;;;7.50;99.90;;;;;;5490208;25;20615;-73
2024/04/18 00:46:36;;;;;;;5.38;4.15;;;7.50;99.90;;;;;;5489498;25;20581;-74
2024/04/18 00:49:02;;;;;;;7.10;4.10;;;7.50;99.90;;;;;;5490199;25;20378;-72
2024/04/18 00:51:32;;;;;;;3.35;3.08;;;7.50;99.90;;;;;;5489505;25;20244;-72
2024/04/18 00:53:58;;;;;;;4.13;3.72;;;7.50;99.90;;;;;;5489803;25;20316;-73
2024/04/18 00:56:27;;;;;;;10.82;6.40;;;7.50;99.90;;;;;;5489321;25;20292;-73
2024/04/18 00:58:58;;;;;;;4.80;4.25;;;7.50;99.90;;;;;;5453500;26;20312;-73
2024/04/18 01:01:29;;;;;;;5.47;3.15;;;7.50;99.90;;;;;;5452983;26;20292;-73
2024/04/18 01:03:55;;;;;;;5.72;5.20;;;7.50;99.90;;;;;;5453641;26;20309;-73
2024/04/18 01:06:24;;;;;;;3.97;3.67;;;7.50;99.90;;;;;;5485403;25;20261;-73
2024/04/18 01:08:50;;;;;;;3.45;3.15;;;7.50;99.90;;;;;;5483071;25;20787;-73
2024/04/18 01:11:19;;;;;;;3.00;2.80;;;7.50;99.90;;;;;;5475424;25;20257;-73
2024/04/18 01:13:45;;;;;;;3.97;2.90;;;7.40;99.90;;;;;;5447158;26;20249;-73
2024/04/18 01:16:16;;;;;;;3.83;3.03;;;7.40;99.90;;;;;;5453124;26;20608;-73
2024/04/18 01:18:42;;;;;;;9.60;8.10;;;7.40;99.90;;;;;;5452631;26;20550;-73
2024/04/18 01:21:12;;;;;;;5.85;3.33;;;7.40;99.90;;;;;;5453320;26;20288;-73
2024/04/18 01:23:38;;;;;;;3.92;3.53;;;7.30;99.90;;;;;;5452299;26;20671;-74
2024/04/18 01:26:07;;;;;;;7.13;5.30;;;7.30;99.90;;;;;;5473661;25;20262;-73
2024/04/18 01:28:35;;;;;;;22.65;14.50;;;7.30;99.90;;;;;;5452302;26;20550;-73
2024/04/18 01:31:04;;;;;;;6.22;5.63;;;7.30;99.90;;;;;;5453024;26;20769;-73
2024/04/18 01:33:31;;;;;;;3.53;3.22;;;7.30;99.90;;;;;;5452280;26;20246;-73
2024/04/18 01:36:00;;;;;;;2.55;2.35;;;7.30;99.90;;;;;;5452833;26;20343;-73
2024/04/18 01:38:26;;;;;;;3.95;3.40;;;7.30;99.90;;;;;;5452086;26;20318;-73
2024/04/18 01:40:57;;;;;;;2.50;2.30;;;7.20;99.90;;;;;;5453055;25;20246;-73
2024/04/18 01:43:23;;;;;;;3.30;3.00;;;7.30;99.90;;;;;;5451308;25;20594;-73
2024/04/18 01:45:57;;;;;;;4.33;3.93;;;7.30;99.90;;;;;;5456561;25;20265;-73
2024/04/18 01:48:23;;;;;;;3.63;2.60;;;7.20;99.90;;;;;;5455613;25;20555;-73
2024/04/18 01:50:52;;;;;;;4.73;2.33;;;7.30;99.90;;;;;;5456367;25;20358;-73
2024/04/18 01:53:20;;;;;;;4.60;2.72;;;7.20;99.90;;;;;;5456476;25;21089;-73
2024/04/18 01:55:46;;;;;;;3.33;3.03;;;7.20;99.90;;;;;;5466233;25;20620;-74
2024/04/18 01:58:23;;;;;;;2.93;2.73;;;7.20;99.90;;;;;;5466066;25;20343;-74
2024/04/18 02:00:51;;;;;;;4.18;3.47;;;7.20;99.90;;;;;;5492381;25;20952;-73
2024/04/18 02:03:20;;;;;;;4.47;4.07;;;7.20;99.90;;;;;;5492800;25;20260;-73
2024/04/18 02:05:46;;;;;;;9.32;5.65;;;7.10;99.90;;;;;;5471562;25;20245;-73
2024/04/18 02:08:14;;;;;;;3.53;2.40;;;7.00;99.90;;;;;;5453618;26;20338;-73
2024/04/18 02:10:42;;;;;;;4.03;3.65;;;6.90;99.90;;;;;;5455299;26;20487;-73
2024/04/18 02:13:11;;;;;;;2.95;2.70;;;6.90;99.90;;;;;;5482163;25;20260;-73
2024/04/18 02:15:37;;;;;;;3.35;3.05;;;6.80;99.90;;;;;;5491954;25;20351;-74
2024/04/18 02:18:08;;;;;;;6.60;4.37;;;6.80;99.90;;;;;;5465693;25;20257;-74
2024/04/18 02:20:34;;;;;;;4.65;2.47;;;6.80;99.90;;;;;;5485099;25;20618;-74
2024/04/18 02:23:03;;;;;;;2.90;2.60;;;6.80;99.90;;;;;;5488286;25;20257;-74
2024/04/18 02:25:29;;;;;;;3.10;2.90;;;6.70;99.90;;;;;;5488839;25;21026;-74
2024/04/18 02:27:57;;;;;;;4.10;3.53;;;6.70;99.90;;;;;;5489197;25;20347;-74
2024/04/18 02:30:23;;;;;;;3.75;3.30;;;6.70;99.90;;;;;;5490722;25;20613;-74
2024/04/18 02:32:52;;;;;;;4.00;3.15;;;6.70;99.90;;;;;;5491049;25;20574;-74
2024/04/18 02:35:21;;;;;;;3.97;3.25;;;6.60;99.90;;;;;;5492141;25;20378;-74
2024/04/18 02:37:49;;;;;;;2.80;2.60;;;6.60;99.90;;;;;;5490668;25;20691;-74
2024/04/18 02:40:16;;;;;;;2.65;2.45;;;6.60;99.90;;;;;;5485569;25;20358;-74
2024/04/18 02:42:44;;;;;;;3.97;3.58;;;6.60;99.90;;;;;;5459491;25;20241;-74
2024/04/18 02:45:10;;;;;;;2.90;2.55;;;6.50;99.90;;;;;;5491962;25;20320;-74
2024/04/18 02:47:39;;;;;;;4.93;3.87;;;6.50;99.90;;;;;;5491428;25;20245;-73
2024/04/18 02:50:06;;;;;;;6.82;4.18;;;6.50;99.90;;;;;;5492075;25;20495;-73
2024/04/18 02:52:37;;;;;;;7.93;5.10;;;6.50;99.90;;;;;;5491315;25;20260;-73
2024/04/18 02:55:04;;;;;;;3.63;2.85;;;6.50;99.90;;;;;;5489750;25;20606;-73
2024/04/18 02:57:40;;;;;;;4.88;3.85;;;6.50;99.90;;;;;;5468783;25;20291;-73
2024/04/18 03:00:07;;;;;;;3.75;3.20;;;6.50;99.90;;;;;;5489676;25;20299;-73
2024/04/18 03:02:36;;;;;;;9.63;4.78;;;6.50;99.90;;;;;;5489006;25;20250;-73
2024/04/18 03:05:01;;;;;;;3.20;2.90;;;6.60;99.90;;;;;;5491411;25;20354;-73
2024/04/18 03:07:30;;;;;;;4.77;3.70;;;6.60;99.90;;;;;;5491466;25;20260;-74
2024/04/18 03:09:58;;;;;;;3.10;2.80;;;6.60;99.90;;;;;;5490996;25;20899;-74
2024/04/18 03:12:27;;;;;;;3.65;3.35;;;6.50;99.90;;;;;;5489577;25;20683;-74
2024/04/18 03:14:53;;;;;;;3.50;3.20;;;6.50;99.90;;;;;;5486316;25;20313;-74
2024/04/18 03:17:22;;;;;;;3.22;2.67;;;6.50;99.90;;;;;;5488861;25;20353;-74
2024/04/18 03:19:48;;;;;;;3.97;3.45;;;6.50;99.90;;;;;;5489053;25;20660;-74
2024/04/18 03:22:16;;;;;;;65.97;30.30;;;6.50;99.90;;;;;;5489358;25;20337;-74
2024/04/18 03:24:42;;;;;;;3.35;3.05;;;6.50;99.90;;;;;;5485858;25;20609;-74
2024/04/18 03:27:13;;;;;;;7.90;5.30;;;6.50;99.90;;;;;;5491058;25;20252;-74
2024/04/18 03:29:39;;;;;;;6.18;3.83;;;6.50;99.90;;;;;;5490556;25;20533;-74
2024/04/18 03:32:08;;;;;;;7.77;5.20;;;6.50;99.90;;;;;;5490878;25;20349;-74
2024/04/18 03:34:34;;;;;;;4.85;4.07;;;6.60;99.90;;;;;;5490797;25;20469;-74
2024/04/18 03:37:03;;;;;;;3.57;2.50;;;6.60;99.90;;;;;;5491323;25;20283;-74
2024/04/18 03:39:32;;;;;;;5.07;4.55;;;6.60;99.90;;;;;;5491190;25;20490;-74
2024/04/18 03:42:01;;;;;;;7.60;6.38;;;6.60;99.90;;;;;;5477484;25;20343;-74
2024/04/18 03:44:32;;;;;;;6.65;5.93;;;6.60;99.90;;;;;;5491513;25;20252;-74
2024/04/18 03:47:01;;;;;;;4.07;3.67;;;6.60;99.90;;;;;;5490575;25;20393;-74
2024/04/18 03:49:28;;;;;;;6.03;5.43;;;6.60;99.90;;;;;;5491176;25;20578;-74
2024/04/18 03:51:57;;;;;;;4.47;3.10;;;6.50;99.90;;;;;;5490508;25;20620;-74
2024/04/18 03:54:23;;;;;;;4.30;4.00;;;6.60;99.90;;;;;;5491148;25;20298;-74
2024/04/18 03:56:52;;;;;;;3.80;3.45;;;6.50;99.90;;;;;;5490312;25;20544;-74
2024/04/18 03:59:18;;;;;;;3.72;3.30;;;6.60;99.90;;;;;;5490955;25;20249;-74
2024/04/18 04:01:49;;;;;;;8.77;5.87;;;6.60;99.90;;;;;;5490611;25;20764;-74
2024/04/18 04:04:15;;;;;;;13.10;9.35;;;6.60;99.90;;;;;;5490953;25;20615;-74
2024/04/18 04:06:44;;;;;;;5.10;3.97;;;6.60;99.90;;;;;;5489872;25;20252;-74
2024/04/18 04:09:15;;;;;;;4.10;3.78;;;6.50;99.90;;;;;;5489441;25;20910;-74
2024/04/18 04:11:43;;;;;;;3.00;2.75;;;6.50;99.90;;;;;;5490587;25;20292;-73
2024/04/18 04:14:11;;;;;;;6.45;5.57;;;6.50;99.90;;;;;;5490514;25;20252;-73
2024/04/18 04:16:39;;;;;;;5.45;4.38;;;6.50;99.90;;;;;;5489980;25;20353;-73
2024/04/18 04:19:08;;;;;;;3.70;2.95;;;6.60;99.90;;;;;;5490781;25;20304;-73
2024/04/18 04:21:36;;;;;;;11.93;7.90;;;6.60;99.90;;;;;;5490675;25;20349;-73
2024/04/18 04:24:02;;;;;;;6.43;4.32;;;6.50;99.90;;;;;;5474698;25;20675;-73
2024/04/18 04:26:33;;;;;;;5.40;3.65;;;6.50;99.90;;;;;;5490522;26;20256;-73
2024/04/18 04:28:59;;;;;;;6.85;5.40;;;6.60;99.90;;;;;;5489749;26;20249;-74
2024/04/18 04:31:28;;;;;;;8.07;6.85;;;6.60;99.90;;;;;;5478749;26;20540;-73
2024/04/18 04:34:01;;;;;;;5.47;4.55;;;6.60;99.90;;;;;;5488789;26;20352;-73
2024/04/18 04:36:32;;;;;;;6.43;5.70;;;6.60;99.90;;;;;;5490260;26;20244;-73
2024/04/18 04:38:58;;;;;;;13.25;7.80;;;6.70;99.90;;;;;;5489727;25;20491;-73
2024/04/18 04:41:26;;;;;;;8.27;4.67;;;6.70;99.90;;;;;;5459112;25;20251;-73
2024/04/18 04:43:57;;;;;;;4.10;3.75;;;6.70;99.90;;;;;;5446966;25;20605;-73
2024/04/18 04:46:25;;;;;;;4.38;3.97;;;6.70;99.90;;;;;;5453867;25;20249;-73
2024/04/18 04:48:53;;;;;;;8.73;5.85;;;6.70;99.90;;;;;;5451945;25;20642;-72
2024/04/18 04:51:22;;;;;;;9.93;7.28;;;6.70;99.90;;;;;;5451159;25;20359;-73
2024/04/18 04:53:50;;;;;;;11.85;7.78;;;6.70;99.90;;;;;;5450341;25;20292;-73
2024/04/18 04:56:19;;;;;;;5.38;4.75;;;6.80;99.90;;;;;;5452080;25;20320;-73
2024/04/18 04:58:45;;;;;;;6.93;4.20;;;6.80;99.90;;;;;;5450591;25;20249;-74
2024/04/18 05:01:13;;;;;;;12.23;7.93;;;6.80;99.90;;;;;;5451798;25;20296;-74
2024/04/18 05:03:39;;;;;;;8.15;6.95;;;6.80;99.90;;;;;;5451785;25;20778;-75
2024/04/18 05:06:08;;;;;;;4.80;4.40;;;6.80;99.90;;;;;;5451382;25;20253;-73
2024/04/18 05:08:34;;;;;;;5.80;5.30;;;6.80;99.90;;;;;;5451923;25;20554;-75
2024/04/18 05:11:05;;;;;;;12.77;9.00;;;6.80;99.90;;;;;;5451228;25;20330;-74
2024/04/18 05:13:31;;;;;;;19.25;14.20;;;6.90;99.90;;;;;;5451411;25;20257;-72
2024/04/18 05:16:00;;;;;;;10.03;7.53;;;6.90;99.90;;;;;;5450875;25;20350;-73
2024/04/18 05:18:28;;;;;;;12.80;8.32;;;6.90;99.90;;;;;;5451591;25;21028;-73
2024/04/18 05:20:54;;;;;;;6.20;5.38;;;7.00;99.90;;;;;;5454649;25;20375;-73
2024/04/18 05:23:23;;;;;;;8.17;6.50;;;7.00;99.90;;;;;;5455119;25;20261;-73
2024/04/18 05:25:49;;;;;;;9.57;6.30;;;7.10;99.90;;;;;;5454611;25;20619;-73
2024/04/18 05:28:30;;;;;;;5.50;5.00;;;7.10;99.90;;;;;;5454575;25;20250;-73
2024/04/18 05:31:03;;;;;;;10.10;7.78;;;7.10;99.90;;;;;;5454172;25;20466;-73
2024/04/18 05:33:32;;;;;;;6.95;5.95;;;7.10;99.90;;;;;;5454784;25;20308;-73
2024/04/18 05:36:00;;;;;;;8.30;5.85;;;7.20;99.90;;;;;;5454562;25;20661;-74
2024/04/18 05:38:29;;;;;;;9.90;7.05;;;7.20;99.90;;;;;;5454700;25;20699;-73
2024/04/18 05:40:58;;;;;;;8.48;6.05;;;7.30;99.90;;;;;;5454563;25;20741;-74
2024/04/18 05:43:29;;;;;;;8.50;6.22;;;7.30;99.90;;;;;;5454945;25;20368;-74
2024/04/18 05:45:58;;;;;;;8.45;6.60;;;7.40;99.90;;;;;;5454171;25;20313;-75
2024/04/18 05:48:27;;;;;;;7.88;6.00;;;7.40;99.90;;;;;;5454461;25;20355;-74
2024/04/18 05:50:55;;;;;;;7.03;5.88;;;7.40;99.90;;;;;;5454920;25;20300;-74
2024/04/18 05:53:24;;;;;;;12.82;6.70;;;7.50;99.90;;;;;;5454271;25;20265;-75
2024/04/18 05:55:53;;;;;;;19.95;12.48;;;7.50;99.90;;;;;;5454267;25;20282;-74
2024/04/18 05:58:22;;;;;;;15.40;11.95;;;7.60;99.90;;;;;;5454453;25;20297;-74
2024/04/18 06:00:53;;;;;;;10.80;8.35;;;7.60;99.90;;;;;;5454698;25;20257;-73
2024/04/18 06:03:22;;;;;;;13.27;10.05;;;7.70;99.90;;;;;;5490802;25;20796;-74
2024/04/18 06:05:51;;;;;;;13.20;7.57;;;7.80;99.90;;;;;;5491298;25;20603;-74
2024/04/18 06:08:19;;;;;;;9.48;6.55;;;7.80;99.90;;;;;;5490166;25;20374;-74
2024/04/18 06:10:48;;;;;;;10.15;6.50;;;7.90;99.90;;;;;;5491034;25;20296;-74
2024/04/18 06:13:18;;;;;;;18.23;12.82;;;8.00;99.90;;;;;;5490138;25;20379;-74
2024/04/18 06:15:47;;;;;;;5.55;4.32;;;8.00;99.90;;;;;;5490826;25;20252;-74
2024/04/18 06:18:18;;;;;;;6.95;4.63;;;8.10;99.90;;;;;;5490187;25;20264;-74
2024/04/18 06:20:50;;;;;;;7.00;3.80;;;8.10;99.90;;;;;;5490782;25;20304;-74
2024/04/18 06:23:18;;;;;;;30.60;15.85;;;8.20;99.90;;;;;;5490277;25;20264;-74
2024/04/18 06:25:50;;;;;;;10.75;8.05;;;8.20;99.90;;;;;;5490813;25;20317;-74
2024/04/18 06:28:19;;;;;;;10.85;7.35;;;8.30;99.90;;;;;;5489908;25;20622;-75
2024/04/18 06:30:47;;;;;;;6.10;5.25;;;8.40;99.90;;;;;;5489343;25;20301;-75
2024/04/18 06:33:19;;;;;;;10.52;8.52;;;8.40;99.90;;;;;;5490045;25;20300;-75
2024/04/18 06:35:47;;;;;;;33.35;19.38;;;8.50;99.90;;;;;;5490549;25;20349;-74
2024/04/18 06:38:16;;;;;;;14.23;9.07;;;8.60;99.90;;;;;;5489645;25;20248;-74
2024/04/18 06:40:45;;;;;;;7.80;5.35;;;8.70;99.90;;;;;;5490672;25;20316;-74
2024/04/18 06:43:14;;;;;;;10.82;4.57;;;8.80;99.90;;;;;;5489908;25;20326;-74
2024/04/18 06:45:42;;;;;;;5.00;3.60;;;8.90;99.90;;;;;;5490469;25;20362;-74
2024/04/18 06:48:11;;;;;;;4.28;3.50;;;8.90;99.90;;;;;;5489949;25;20264;-74
2024/04/18 06:50:42;;;;;;;2.85;2.60;;;9.00;99.90;;;;;;5490132;25;20244;-74
2024/04/18 06:53:11;;;;;;;4.68;2.70;;;9.10;99.90;;;;;;5489442;25;20738;-74
2024/04/18 06:55:41;;;;;;;6.70;3.00;;;9.20;99.90;;;;;;5490206;25;20244;-74
2024/04/18 06:58:09;;;;;;;3.15;2.88;;;9.30;99.90;;;;;;5489661;25;20605;-74
2024/04/18 07:00:40;;;;;;;3.38;2.40;;;9.30;99.90;;;;;;5490181;25;20730;-74
2024/04/18 07:03:12;;;;;;;3.53;2.22;;;9.40;99.90;;;;;;5489626;25;20261;-74
2024/04/18 07:05:43;;;;;;;4.05;2.95;;;9.50;99.90;;;;;;5489946;25;20300;-73
2024/04/18 07:08:12;;;;;;;3.28;2.25;;;9.50;99.90;;;;;;5489310;25;20600;-74
2024/04/18 07:10:41;;;;;;;3.28;2.67;;;9.60;99.90;;;;;;5490062;25;20240;-74
2024/04/18 07:13:10;;;;;;;3.33;2.50;;;9.70;99.90;;;;;;5489676;25;20352;-74
2024/04/18 07:15:39;;;;;;;4.35;3.08;;;9.80;99.90;;;;;;5489679;25;20416;-74
2024/04/18 07:18:07;;;;;;;3.03;2.50;;;9.90;99.90;;;;;;5489350;25;20639;-75
2024/04/18 07:20:36;;;;;;;2.75;2.10;;;10.00;99.90;;;;;;5489978;25;20316;-75
2024/04/18 07:23:08;;;;;;;3.35;2.40;;;10.10;99.90;;;;;;5489047;25;20283;-75
2024/04/18 07:25:38;;;;;;;2.75;2.50;;;10.10;99.90;;;;;;5489977;25;20249;-75
2024/04/18 07:28:07;;;;;;;2.60;2.13;;;10.20;99.90;;;;;;5489310;25;20253;-75
2024/04/18 07:30:36;;;;;;;3.45;2.17;;;10.30;99.90;;;;;;5490021;25;20382;-73
2024/04/18 07:33:05;;;;;;;1.73;1.63;;;10.40;99.90;;;;;;5489085;25;20359;-73
2024/04/18 07:35:33;;;;;;;2.55;2.28;;;10.40;99.90;;;;;;5489753;25;20333;-74
2024/04/18 07:38:02;;;;;;;2.75;2.55;;;10.50;99.90;;;;;;5489635;25;20374;-74
2024/04/18 07:40:33;;;;;;;2.85;2.38;;;10.60;99.90;;;;;;5489303;25;20339;-74
2024/04/18 07:43:02;;;;;;;3.67;2.20;;;10.70;99.30;;;;;;5489390;25;20260;-73
2024/04/18 07:45:31;;;;;;;1.90;1.80;;;10.80;99.20;;;;;;5488801;25;20396;-73
2024/04/18 07:48:00;;;;;;;1.80;1.63;;;10.80;98.90;;;;;;5489258;25;20593;-73
2024/04/18 07:50:29;;;;;;;3.83;2.75;;;10.90;98.70;;;;;;5488901;25;20578;-73
2024/04/18 07:52:57;;;;;;;2.70;2.30;;;10.90;98.30;;;;;;5489208;25;20676;-73
2024/04/18 07:55:26;;;;;;;2.47;1.65;;;11.00;98.20;;;;;;5489005;25;20666;-73
2024/04/18 07:57:57;;;;;;;6.38;3.80;;;11.00;96.80;;;;;;5489289;25;20401;-73
2024/04/18 08:00:26;;;;;;;2.10;1.88;;;11.00;97.00;;;;;;5488763;25;20248;-73
2024/04/18 08:02:54;;;;;;;6.45;4.25;;;11.10;96.30;;;;;;5489322;25;20268;-74
2024/04/18 08:05:23;;;;;;;2.88;1.50;;;11.20;96.30;;;;;;5488509;25;20374;-74
2024/04/18 08:07:52;;;;;;;3.67;1.38;;;11.20;96.20;;;;;;5489186;25;20316;-74
2024/04/18 08:10:21;;;;;;;1.80;1.48;;;11.30;95.80;;;;;;5488652;25;20249;-74
2024/04/18 08:12:49;;;;;;;2.05;1.60;;;11.30;95.40;;;;;;5488935;25;20308;-73
2024/04/18 08:15:21;;;;;;;1.77;1.60;;;11.40;94.80;;;;;;5488500;25;20308;-73
2024/04/18 08:17:49;;;;;;;2.80;2.60;;;11.50;94.60;;;;;;5488967;25;20260;-73
2024/04/18 08:20:20;;;;;;;3.03;2.63;;;11.60;94.40;;;;;;5488604;25;20362;-73
2024/04/18 08:22:50;;;;;;;3.17;2.53;;;11.60;94.50;;;;;;5488899;25;20383;-74
2024/04/18 08:25:19;;;;;;;8.05;4.00;;;11.70;94.60;;;;;;5488460;25;20353;-74
2024/04/18 08:27:48;;;;;;;3.10;2.33;;;11.70;94.20;;;;;;5488673;25;20694;-74
2024/04/18 08:30:19;;;;;;;5.30;4.10;;;11.80;94.00;;;;;;5488015;25;20264;-73
2024/04/18 08:32:48;;;;;;;2.55;2.20;;;11.90;93.80;;;;;;5488838;25;20260;-74
2024/04/18 08:35:19;;;;;;;1.67;1.52;;;11.90;93.50;;;;;;5488344;25;20370;-74
2024/04/18 08:37:48;;;;;;;2.42;1.50;;;12.00;92.70;;;;;;5488684;25;20542;-74
2024/04/18 08:40:16;;;;;;;3.35;2.75;;;12.00;91.40;;;;;;5487938;25;20286;-74
2024/04/18 08:42:45;;;;;;;2.75;1.70;;;12.10;91.50;;;;;;5488429;25;20299;-73
2024/04/18 08:45:16;;;;;;;3.13;2.28;;;12.10;91.10;;;;;;5487861;25;20262;-74
2024/04/18 08:47:48;;;;;;;2.30;1.67;;;12.10;90.40;;;;;;5488492;25;20245;-74
2024/04/18 08:50:18;;;;;;;1.95;1.75;;;12.20;90.40;;;;;;5488219;25;20591;-74
2024/04/18 08:52:46;;;;;;;1.90;1.50;;;12.20;89.00;;;;;;5488310;25;20263;-73
2024/04/18 08:55:15;;;;;;;2.55;2.10;;;12.20;88.60;;;;;;5490351;25;20651;-73
2024/04/18 08:57:49;;;;;;;6.05;2.05;;;12.20;88.80;;;;;;5491502;25;20300;-73
2024/04/18 09:00:18;;;;;;;2.33;2.08;;;12.20;88.80;;;;;;5490972;25;20298;-74
2024/04/18 09:02:51;;;;;;;1.85;1.63;;;12.10;87.00;;;;;;5491985;25;20472;-73
2024/04/18 09:05:20;;;;;;;3.28;1.83;;;12.10;87.40;;;;;;5491375;25;20294;-73
2024/04/18 09:07:48;;;;;;;2.13;1.60;;;12.20;87.70;;;;;;5491563;25;20378;-75
2024/04/18 09:10:21;;;;;;;2.10;1.20;;;12.20;88.30;;;;;;5491048;25;20766;-74
2024/04/18 09:12:51;;;;;;;1.83;1.17;;;12.20;88.10;;;;;;5491441;25;20605;-74
2024/04/18 09:15:19;;;;;;;1.40;1.20;;;12.30;87.60;;;;;;5491111;25;20375;-74
2024/04/18 09:18:01;;;;;;;3.10;2.65;;;12.30;86.90;;;;;;5491382;25;20300;-75
2024/04/18 09:20:30;;;;;;;7.40;4.90;;;12.40;86.90;;;;;;5490777;25;20556;-74
2024/04/18 09:22:59;;;;;;;5.03;3.30;;;12.50;87.70;;;;;;5491402;25;20807;-74
2024/04/18 09:25:28;;;;;;;3.50;2.55;;;12.50;86.40;;;;;;5490998;25;20389;-74
2024/04/18 09:27:57;;;;;;;3.67;2.38;;;12.60;86.30;;;;;;5491344;25;20633;-74
2024/04/18 09:30:26;;;;;;;2.95;2.20;;;12.70;86.20;;;;;;5489918;25;20641;-74
2024/04/18 09:32:58;;;;;;;13.35;9.10;;;12.70;85.70;;;;;;5491368;25;20244;-74
2024/04/18 09:35:32;;;;;;;3.85;2.90;;;12.70;85.60;;;;;;5490886;25;20355;-74
2024/04/18 09:38:02;;;;;;;16.38;9.18;;;12.80;85.60;;;;;;5491586;25;20690;-73
2024/04/18 09:40:35;;;;;;;2.78;2.45;;;12.80;84.90;;;;;;5490832;25;20248;-74
2024/04/18 09:43:12;;;;;;;1.88;1.42;;;12.80;84.00;;;;;;5491320;25;20264;-74
2024/04/18 09:45:47;;;;;;;9.27;4.70;;;12.80;83.70;;;;;;5490571;25;20349;-74
2024/04/18 09:48:19;;;;;;;7.75;5.05;;;12.80;83.40;;;;;;5491076;25;20382;-73
2024/04/18 09:50:49;;;;;;;4.03;2.60;;;12.80;83.20;;;;;;5490778;25;20282;-74
2024/04/18 09:53:18;;;;;;;6.25;3.55;;;12.80;83.20;;;;;;5490463;25;20668;-75
2024/04/18 09:55:49;;;;;;;1.88;1.75;;;12.80;83.10;;;;;;5491150;25;20641;-74
2024/04/18 09:58:20;;;;;;;1.73;1.63;;;12.80;83.40;;;;;;5490456;25;20308;-75
2024/04/18 10:00:49;;;;;;;3.38;3.00;;;12.80;82.10;;;;;;5490957;25;20260;-73
2024/04/18 10:03:20;;;;;;;3.22;1.75;;;12.70;81.80;;;;;;5489991;25;20307;-74
2024/04/18 10:05:51;;;;;;;1.38;1.13;;;12.80;81.70;;;;;;5490883;25;20674;-73
2024/04/18 10:08:21;;;;;;;2.30;1.30;;;12.80;81.10;;;;;;5490801;25;20695;-74
2024/04/18 10:10:51;;;;;;;1.95;1.60;;;12.70;79.90;;;;;;5490911;25;20307;-73
2024/04/18 10:13:23;;;;;;;2.03;1.60;;;12.70;79.20;;;;;;5490041;25;20322;-74
2024/04/18 10:15:52;;;;;;;4.18;2.92;;;12.70;78.90;;;;;;5490759;25;20714;-74
2024/04/18 10:18:23;;;;;;;1.70;1.60;;;12.80;78.90;;;;;;5490080;25;20304;-74
2024/04/18 10:20:56;;;;;;;1.48;1.13;;;12.80;79.10;;;;;;5490914;25;20312;-74
2024/04/18 10:23:24;;;;;;;1.90;1.20;;;12.80;79.70;;;;;;5490106;25;20352;-74
2024/04/18 10:25:59;;;;;;;7.55;4.72;;;12.90;80.50;;;;;;5491104;25;20312;-73
2024/04/18 10:28:30;;;;;;;5.60;3.97;;;12.90;81.30;;;;;;5490283;25;20312;-74
2024/04/18 10:31:05;;;;;;;3.25;2.20;;;12.90;82.00;;;;;;5490431;25;20286;-74
2024/04/18 10:33:37;;;;;;;3.03;2.72;;;13.00;81.90;;;;;;5490055;25;20239;-74
2024/04/18 10:36:09;;;;;;;2.65;2.00;;;13.00;81.90;;;;;;5490701;25;20300;-74
2024/04/18 10:38:43;;;;;;;1.58;1.42;;;13.00;81.90;;;;;;5489921;25;20316;-74
2024/04/18 10:41:14;;;;;;;4.85;2.10;;;13.10;81.90;;;;;;5489974;25;20255;-74
2024/04/18 10:43:44;;;;;;;13.63;8.77;;;13.20;81.70;;;;;;5489649;25;20345;-74
2024/04/18 10:46:18;;;;;;;6.18;4.47;;;13.20;81.80;;;;;;5490750;25;20349;-75
2024/04/18 10:48:54;;;;;;;8.30;5.43;;;13.20;82.10;;;;;;5490102;25;20320;-74
2024/04/18 10:51:23;;;;;;;5.72;3.00;;;13.20;82.30;;;;;;5489458;25;20253;-74
2024/04/18 10:53:52;;;;;;;9.27;6.45;;;13.20;83.80;;;;;;5490003;25;20256;-74
2024/04/18 10:56:21;;;;;;;7.13;5.13;;;13.20;84.80;;;;;;5490181;25;20676;-73
2024/04/18 10:58:51;;;;;;;3.00;2.63;;;13.20;86.00;;;;;;5489862;25;20989;-74
2024/04/18 11:01:22;;;;;;;7.55;5.65;;;13.20;86.50;;;;;;5489897;25;20296;-74
2024/04/18 11:03:55;;;;;;;2.88;2.28;;;13.20;86.70;;;;;;5489772;25;20362;-74
2024/04/18 11:06:23;;;;;;;5.40;4.00;;;13.30;86.40;;;;;;5490242;25;20698;-73
2024/04/18 11:08:53;;;;;;;5.95;3.50;;;13.40;86.40;;;;;;5489395;25;20754;-74
2024/04/18 11:11:26;;;;;;;2.88;2.60;;;13.40;86.50;;;;;;5490109;25;20252;-74
2024/04/18 11:13:56;;;;;;;9.18;6.47;;;13.40;86.50;;;;;;5489688;25;20266;-74
2024/04/18 11:16:25;;;;;;;2.55;2.15;;;13.40;86.80;;;;;;5489035;25;20244;-74
2024/04/18 11:18:57;;;;;;;6.13;3.88;;;13.40;86.70;;;;;;5489127;25;20287;-74
2024/04/18 11:21:27;;;;;;;5.15;4.63;;;13.40;86.80;;;;;;5489655;25;20304;-74
2024/04/18 11:23:57;;;;;;;11.93;8.07;;;13.30;86.50;;;;;;5489583;25;20284;-74
2024/04/18 11:26:28;;;;;;;7.25;6.55;;;13.20;86.40;;;;;;5489812;25;20358;-74
2024/04/18 11:28:59;;;;;;;5.60;3.10;;;13.20;86.50;;;;;;5489052;25;21028;-74
2024/04/18 11:31:24;;;;;;;6.30;4.60;;;13.10;87.20;;;;;;5489886;25;20689;-74
2024/04/18 11:33:55;;;;;;;3.70;3.00;;;13.10;87.20;;;;;;5488833;25;20655;-74
2024/04/18 11:36:27;;;;;;;7.88;5.38;;;13.00;87.40;;;;;;5489471;25;20477;-74
2024/04/18 11:39:01;;;;;;;6.68;4.85;;;13.00;87.60;;;;;;5489411;25;20334;-74
2024/04/18 11:41:31;;;;;;;3.17;2.55;;;13.00;87.90;;;;;;5489614;25;20542;-75
2024/04/18 11:44:00;;;;;;;3.47;1.92;;;12.90;87.80;;;;;;5488843;25;20248;-74
2024/04/18 11:46:33;;;;;;;6.10;4.80;;;12.90;86.90;;;;;;5489328;25;20856;-74
2024/04/18 11:49:02;;;;;;;3.60;3.30;;;12.90;87.10;;;;;;5489455;25;20742;-74
2024/04/18 11:51:33;;;;;;;11.02;9.27;;;12.90;87.00;;;;;;5489564;25;20752;-75
2024/04/18 11:54:05;;;;;;;6.53;5.20;;;12.90;87.30;;;;;;5488487;25;20296;-74
2024/04/18 11:56:34;;;;;;;13.90;9.32;;;12.90;87.10;;;;;;5489299;25;20394;-75
2024/04/18 11:59:02;;;;;;;4.82;4.00;;;12.90;87.00;;;;;;5488440;25;20803;-73
2024/04/18 12:01:31;;;;;;;4.90;3.88;;;13.00;86.70;;;;;;5488970;25;20726;-74
2024/04/18 12:04:00;;;;;;;4.97;3.80;;;13.10;86.90;;;;;;5488867;25;20331;-73
2024/04/18 12:06:28;;;;;;;4.93;4.43;;;13.10;86.80;;;;;;5489011;25;20267;-74
2024/04/18 12:09:03;;;;;;;15.65;10.20;;;13.20;86.80;;;;;;5488580;25;20307;-73
2024/04/18 12:11:32;;;;;;;1.65;1.52;;;13.20;85.00;;;;;;5488842;25;20659;-75
2024/04/18 12:14:01;;;;;;;4.38;2.00;;;13.30;84.10;;;;;;5490180;25;20316;-74
2024/04/18 12:16:30;;;;;;;2.47;2.28;;;13.40;83.00;;;;;;5490725;25;20248;-74
2024/04/18 12:18:59;;;;;;;3.45;1.83;;;13.50;82.50;;;;;;5489899;25;20679;-74
2024/04/18 12:21:27;;;;;;;6.45;4.32;;;13.60;82.70;;;;;;5490750;25;20589;-74
2024/04/18 12:23:56;;;;;;;15.32;11.32;;;13.60;82.40;;;;;;5490089;25;20341;-74
2024/04/18 12:26:30;;;;;;;5.57;5.05;;;13.70;82.50;;;;;;5490479;25;20312;-74
2024/04/18 12:28:59;;;;;;;4.45;4.00;;;13.70;82.60;;;;;;5488613;25;20260;-74
2024/04/18 12:31:27;;;;;;;2.17;1.95;;;13.80;82.40;;;;;;5490443;25;20286;-73
2024/04/18 12:33:56;;;;;;;2.55;1.67;;;13.90;80.90;;;;;;5489756;25;20722;-73
2024/04/18 12:36:24;;;;;;;1.75;1.58;;;14.00;80.60;;;;;;5490149;25;20371;-73
2024/04/18 12:38:53;;;;;;;6.07;4.97;;;14.10;80.60;;;;;;5489614;25;20272;-74
2024/04/18 12:41:22;;;;;;;3.60;3.10;;;14.20;80.70;;;;;;5490149;25;20366;-75
2024/04/18 12:43:53;;;;;;;3.42;1.42;;;14.30;79.70;;;;;;5489743;25;20545;-75
2024/04/18 12:46:22;;;;;;;3.77;2.07;;;14.30;76.70;;;;;;5490059;25;20341;-73
2024/04/18 12:48:50;;;;;;;3.22;2.10;;;14.20;74.90;;;;;;5489461;25;20614;-73
2024/04/18 12:51:19;;;;;;;4.13;3.38;;;14.20;74.10;;;;;;5490083;25;20703;-74
2024/04/18 12:53:48;;;;;;;11.73;8.80;;;14.10;74.50;;;;;;5489823;25;20695;-74
2024/04/18 12:56:18;;;;;;;11.32;7.68;;;14.10;75.90;;;;;;5489938;25;20557;-74
2024/04/18 12:58:46;;;;;;;2.90;2.60;;;14.00;76.60;;;;;;5489643;25;20260;-74
2024/04/18 13:01:18;;;;;;;5.90;5.13;;;14.00;76.90;;;;;;5490227;25;20485;-74